• Join FlightAware (Why Join?)
  • Login
  • US Flag 
06:29AM EST


 

Airport Tracker/Info


-or-


 

Live Flight TrackerFlight Track Log ✈ SWA22 ✈ 17-Apr-2013 ✈ KHRL - KHOU

Flight Track Log - Related Links

Times and Time Zones

All times are in EDT time to prevent confusion due to time zone crossing. See the SWA22 flight status page for this flight to view local times or setup timezone preferences in your user account.

Time Position Orientation Groundspeed Altitude Reporting Facility
EDT Latitude Longitude Course Direction KTS MPH feet Rate Location/Type
11:03AM 26.2167 -97.6594 74° East 136 157 700  Level Houston Center
11:04AM 26.2269 -97.6183 74° East 193 222 2,000 1,740 Climbing Houston Center
11:04AM 26.2372 -97.5992 59° Northeast 204 235 2,800 1,740 Climbing Houston Center
11:05AM 26.3086 -97.5850 10° North 267 307 4,300 2,220 Climbing Houston Center
11:06AM 26.4044 -97.5764 North 317 365 7,400 3,180 Climbing Houston Center
11:07AM 26.4928 -97.5689 North 318 366 11,000 2,880 Climbing Houston Center
11:08AM 26.5986 -97.5553 North 357 411 13,500 2,700 Climbing Houston Center
11:09AM 26.6925 -97.5053 25° Northeast 368 423 16,600 2,700 Climbing Houston Center
11:10AM 26.7958 -97.4472 27° Northeast 386 444 19,200 2,340 Climbing Houston Center
11:11AM 26.8947 -97.3894 28° Northeast 400 460 21,500 1,800 Climbing Houston Center
11:12AM 27.0083 -97.3658 10° North 422 486 23,000 840 Climbing Houston Center
11:13AM 27.1297 -97.3781 355° North 436 502 23,300 1,860 Climbing Houston Center
11:14AM 27.2469 -97.3639 North 426 490 26,900 2,220 Climbing Houston Center
11:15AM 27.3561 -97.2947 29° Northeast 447 514 28,000 1,500 Climbing Houston Center
11:17AM 27.4608 -97.2264 30° Northeast 441 507 30,100 2,340 Climbing Houston Center
11:18AM 27.5875 -97.1478 29° Northeast 435 501 32,900 1,380 Climbing Houston Center
11:19AM 27.6878 -97.0842 29° Northeast 429 494 33,000  Climbing Houston Center
11:20AM 27.7900 -97.0181 30° Northeast 425 489 33,000 -120 Level Houston Center
11:21AM 27.8914 -96.9542 29° Northeast 420 483 32,800 -600 Descending Houston Center
11:22AM 27.9836 -96.8675 40° Northeast 429 494 31,800 -1,080 Descending Houston Center
11:23AM 28.0914 -96.7589 42° Northeast 433 498 30,600 -1,080 Descending Houston Center
11:24AM 28.1828 -96.6658 42° Northeast 440 506 29,600 -960 Descending Houston Center
11:25AM 28.2869 -96.5942 31° Northeast 438 504 28,700 -960 Descending Houston Center
11:26AM 28.3986 -96.5347 25° Northeast 443 510 27,700 -1,020 Descending Houston Center
11:27AM 28.5081 -96.4739 26° Northeast 440 506 26,700 -1,080 Descending Houston Center
11:28AM 28.6356 -96.4033 26° Northeast 429 494 25,500 -1,380 Descending Houston Center
11:29AM 28.7419 -96.3464 25° Northeast 425 489 23,900 -1,860 Descending Houston Center
11:30AM 28.8450 -96.2894 26° Northeast 416 479 21,700 -2,100 Descending Houston Center
11:31AM 28.9425 -96.2350 26° Northeast 397 457 19,600 -2,040 Descending Houston Center
11:32AM 29.0367 -96.1839 25° Northeast 381 438 17,500 -2,220 Descending Houston Center
11:33AM 29.1444 -96.1242 26° Northeast 363 418 15,100 -2,160 Descending Houston Center
11:34AM 29.2336 -96.0753 26° Northeast 357 411 13,100 -1,860 Descending Houston Center
11:35AM 29.2953 -96.0392 27° Northeast 343 395 12,000 -1,080 Descending Houston Center
11:35AM 29.3150 -96.0239 34° Northeast 340 391 12,000  Level Houston Center
11:36AM 29.3658 -95.9567 49° Northeast 346 398 12,000 -120 Level Houston Center
11:36AM 29.3742 -95.9433 54° Northeast 343 395 11,900 -840 Descending Houston Center
11:37AM 29.4317 -95.8703 48° Northeast 338 389 11,200 -780 Descending Houston Center
11:37AM 29.4375 -95.8631 47° Northeast 342 394 11,100 -1,680 Descending Houston Center
11:38AM 29.4864 -95.7992 49° Northeast 322 371 9,700 -2,040 Descending Houston Center
11:38AM 29.5081 -95.7703 49° Northeast 324 373 9,000 -2,160 Descending Houston Center
11:39AM 29.5483 -95.7175 49° Northeast 307 353 7,300 -2,280 Descending Houston Center
11:39AM 29.5644 -95.6969 48° Northeast 310 357 6,700 -1,260 Descending Houston Center
11:40AM 29.6047 -95.6436 49° Northeast 300 345 6,000 -720 Descending Houston Center
11:40AM 29.6192 -95.6264 46° Northeast 301 346 6,000 -240 Level Houston Center
11:41AM 29.6556 -95.5800 48° Northeast 253 291 5,800 -540 Descending Houston Center
11:41AM 29.6661 -95.5675 46° Northeast 261 300 5,500 -1,320 Descending Houston Center
11:42AM 29.7031 -95.5239 46° Northeast 248 285 4,500 -1,260 Descending Houston Center
11:42AM 29.7153 -95.5114 42° Northeast 253 291 4,200 -1,200 Descending Houston Center
11:43AM 29.7492 -95.4750 43° Northeast 238 274 3,400 -1,200 Descending Houston Center
11:43AM 29.7669 -95.4606 35° Northeast 247 284 3,000 -1,200 Descending Houston Center
11:44AM 29.7558 -95.4117 105° East 184 212 2,000 -1,020 Descending Houston Center
11:44AM 29.7472 -95.4000 130° Southeast 207 238 2,000  Level Houston Center
11:45AM 29.7278 -95.3789 137° Southeast 151 174 2,000 -120 Level Houston Center
11:45AM 29.7172 -95.3653 132° Southeast 173 199 1,900 -540 Descending Houston Center
11:46AM 29.6992 -95.3439 134° Southeast 131 151 1,500 -600 Descending Houston Center
11:47AM 29.6908 -95.3333 132° Southeast 155 178 1,300 -600 Descending Houston Center
11:47AM 29.6781 -95.3175 133° Southeast 114 131 900 -600 Descending Houston Center
11:48AM 29.6694 -95.3078 136° Southeast 131 151 700 -480 Descending Houston Center
11:49AM 29.6458 -95.2806 135° Southeast 120 138 200 -540 Descending Houston Center